Time;durP1;ratioP1;P1;durP2;ratioP2;P2;SDS_P1;SDS_P2;PMS_P1;PMS_P2;Temp;Humidity;BMP_temperature;BMP_pressure;BME280_temperature;BME280_humidity;BME280_pressure;Samples;Min_cycle;Max_cycle;Signal;HPM_P1;HPM_P2
2023/06/23 00:01:00;;;;;;;;;;;;;;;;;;12992169;19;19911;-62
2023/06/23 00:05:30;;;;;;;;;;;;;;;;;;12992768;19;19922;-63
2023/06/23 00:09:49;;;;;;;;;;;;;;;;;;12991877;19;19921;-62
2023/06/23 00:14:07;;;;;;;;;;;;;;;;;;12991345;19;20344;-62
2023/06/23 00:18:25;;;;;;;;;;;;;;;;;;12991966;19;19914;-62
2023/06/23 00:22:44;;;;;;;;;;;;;;;;;;12991791;19;19918;-62
2023/06/23 00:27:03;;;;;;;;;;;;;;;;;;12989804;19;19918;-62
2023/06/23 00:31:22;;;;;;;;;;;;;;;;;;12991042;19;19926;-62
2023/06/23 00:35:42;;;;;;;;;;;;;;;;;;12991340;19;19918;-62
2023/06/23 00:40:00;;;;;;;;;;;;;;;;;;12989733;19;19926;-62
2023/06/23 00:44:18;;;;;;;;;;;;;;;;;;12989572;19;19933;-62
2023/06/23 00:48:37;;;;;;;;;;;;;;;;;;12989351;19;20240;-65
2023/06/23 00:52:54;;;;;;;;;;;;;;;;;;12989499;19;20485;-63
2023/06/23 00:57:12;;;;;;;;;;;;;;;;;;12988451;19;19923;-63
2023/06/23 01:01:33;;;;;;;;;;;;;;;;;;12986731;19;19923;-63
2023/06/23 01:05:51;;;;;;;;;;;;;;;;;;12990307;19;19923;-64
2023/06/23 01:10:15;;;;;;;;;;;;;;;;;;12985994;19;20334;-64
2023/06/23 01:14:41;;;;;;;;;;;;;;;;;;12989400;19;19914;-63
2023/06/23 01:19:15;;;;;;;;;;;;;;;;;;12987414;19;19919;-64
2023/06/23 01:24:00;;;;;;;;;;;;;;;;;;12988357;19;19923;-62
2023/06/23 01:28:18;;;;;;;;;;;;;;;;;;12984728;19;19918;-63
2023/06/23 01:32:41;;;;;;;;;;;;;;;;;;12987472;19;19914;-62
2023/06/23 01:37:12;;;;;;;;;;;;;;;;;;12985715;19;19930;-64
2023/06/23 01:41:33;;;;;;;;;;;;;;;;;;12987324;19;19915;-64
2023/06/23 01:45:55;;;;;;;;;;;;;;;;;;12986507;19;19930;-63
2023/06/23 01:50:13;;;;;;;;;;;;;;;;;;12980249;19;19942;-63
2023/06/23 01:54:32;;;;;;;;;;;;;;;;;;12984602;19;19943;-63
2023/06/23 01:58:51;;;;;;;;;;;;;;;;;;12987022;19;19932;-64
2023/06/23 02:03:10;;;;;;;;;;;;;;;;;;12984058;19;19914;-63
2023/06/23 02:07:28;;;;;;;;;;;;;;;;;;12986210;19;19978;-63
2023/06/23 02:11:47;;;;;;;;;;;;;;;;;;12984765;19;19922;-62
2023/06/23 02:16:06;;;;;;;;;;;;;;;;;;12985928;19;19925;-63
2023/06/23 02:20:28;;;;;;;;;;;;;;;;;;12985179;19;19915;-63
2023/06/23 02:24:47;;;;;;;;;;;;;;;;;;12985460;19;19939;-63
2023/06/23 02:29:06;;;;;;;;;;;;;;;;;;12982256;19;19911;-63
2023/06/23 02:33:24;;;;;;;;;;;;;;;;;;12983137;19;19911;-63
2023/06/23 02:37:47;;;;;;;;;;;;;;;;;;12984880;19;19922;-63
2023/06/23 02:42:06;;;;;;;;;;;;;;;;;;12981776;19;19919;-63
2023/06/23 02:46:31;;;;;;;;;;;;;;;;;;12983825;19;19915;-63
2023/06/23 02:50:49;;;;;;;;;;;;;;;;;;12980768;19;19922;-63
2023/06/23 02:55:09;;;;;;;;;;;;;;;;;;12980368;19;20363;-64
2023/06/23 02:59:27;;;;;;;;;;;;;;;;;;12980050;19;19942;-63
2023/06/23 03:03:45;;;;;;;;;;;;;;;;;;12980909;19;20286;-63
2023/06/23 03:08:03;;;;;;;;;;;;;;;;;;12980407;19;19934;-62
2023/06/23 03:12:21;;;;;;;;;;;;;;;;;;12981313;19;19939;-64
2023/06/23 03:16:59;;;;;;;;;;;;;;;;;;12981810;19;20266;-63
2023/06/23 03:21:18;;;;;;;;;;;;;;;;;;12982207;19;19918;-63
2023/06/23 03:25:37;;;;;;;;;;;;;;;;;;12981265;19;20285;-62
2023/06/23 03:29:59;;;;;;;;;;;;;;;;;;12980153;19;20572;-62
2023/06/23 03:34:19;;;;;;;;;;;;;;;;;;12980641;19;19974;-62
2023/06/23 03:38:42;;;;;;;;;;;;;;;;;;12980884;19;20413;-62
2023/06/23 03:43:15;;;;;;;;;;;;;;;;;;12980838;19;20476;-62
2023/06/23 03:47:33;;;;;;;;;;;;;;;;;;12981359;19;19922;-63
2023/06/23 03:51:52;;;;;;;;;;;;;;;;;;12982127;19;19927;-63
2023/06/23 03:56:12;;;;;;;;;;;;;;;;;;12978716;19;19930;-63
2023/06/23 04:00:31;;;;;;;;;;;;;;;;;;12980426;19;20343;-62
2023/06/23 04:04:52;;;;;;;;;;;;;;;;;;12979983;19;19933;-63
2023/06/23 04:09:10;;;;;;;;;;;;;;;;;;12979099;19;19933;-63
2023/06/23 04:13:29;;;;;;;;;;;;;;;;;;12985634;19;19926;-63
2023/06/23 04:17:47;;;;;;;;;;;;;;;;;;12990940;19;19911;-63
2023/06/23 04:22:07;;;;;;;;;;;;;;;;;;12989826;19;19914;-63
2023/06/23 04:26:27;;;;;;;;;;;;;;;;;;12990679;19;20258;-62
2023/06/23 04:30:46;;;;;;;;;;;;;;;;;;12991574;19;20235;-63
2023/06/23 04:35:06;;;;;;;;;;;;;;;;;;12992572;19;20330;-62
2023/06/23 04:39:27;;;;;;;;;;;;;;;;;;12992616;19;19926;-63
2023/06/23 04:43:49;;;;;;;;;;;;;;;;;;12992150;19;19915;-63
2023/06/23 04:48:11;;;;;;;;;;;;;;;;;;12987554;19;19926;-62
2023/06/23 04:52:29;;;;;;;;;;;;;;;;;;12988356;19;20285;-63
2023/06/23 04:56:49;;;;;;;;;;;;;;;;;;12987979;19;19919;-63
2023/06/23 05:01:09;;;;;;;;;;;;;;;;;;12986646;19;19919;-62
2023/06/23 05:05:30;;;;;;;;;;;;;;;;;;12986878;19;19954;-63
2023/06/23 05:09:49;;;;;;;;;;;;;;;;;;12989298;19;19922;-63
2023/06/23 05:14:08;;;;;;;;;;;;;;;;;;12987085;19;19944;-63
2023/06/23 05:18:27;;;;;;;;;;;;;;;;;;12989076;19;19919;-62
2023/06/23 05:22:50;;;;;;;;;;;;;;;;;;12986907;19;20237;-63
2023/06/23 05:27:08;;;;;;;;;;;;;;;;;;12987408;19;19955;-62
2023/06/23 05:31:27;;;;;;;;;;;;;;;;;;12987022;19;20337;-63
2023/06/23 05:35:46;;;;;;;;;;;;;;;;;;12985850;19;19979;-63
2023/06/23 05:40:06;;;;;;;;;;;;;;;;;;12983179;19;19918;-63
2023/06/23 05:44:24;;;;;;;;;;;;;;;;;;12985849;19;19923;-65
2023/06/23 05:48:53;;;;;;;;;;;;;;;;;;12985248;19;19941;-65
2023/06/23 05:53:17;;;;;;;;;;;;;;;;;;12987740;19;20453;-63
2023/06/23 05:57:35;;;;;;;;;;;;;;;;;;12985089;19;20493;-66
2023/06/23 06:01:55;;;;;;;;;;;;;;;;;;12985705;19;19918;-67
2023/06/23 06:06:13;;;;;;;;;;;;;;;;;;12986296;19;19922;-67
2023/06/23 06:10:30;;;;;;;;;;;;;;;;;;12985448;19;19922;-67
2023/06/23 06:14:48;;;;;;;;;;;;;;;;;;12984864;19;20322;-66
2023/06/23 06:19:06;;;;;;;;;;;;;;;;;;12984330;19;20489;-66
2023/06/23 06:23:24;;;;;;;;;;;;;;;;;;12983676;19;19922;-66
2023/06/23 06:27:43;;;;;;;;;;;;;;;;;;12982577;19;19919;-66
2023/06/23 06:32:00;;;;;;;;;;;;;;;;;;12982129;19;19926;-66
2023/06/23 06:36:19;;;;;;;;;;;;;;;;;;12983029;19;19915;-66
2023/06/23 06:40:36;;;;;;;;;;;;;;;;;;12982489;19;19943;-66
2023/06/23 06:44:54;;;;;;;;;;;;;;;;;;12984407;19;19948;-66
2023/06/23 06:49:12;;;;;;;;;;;;;;;;;;12983968;19;19919;-66
2023/06/23 06:53:30;;;;;;;;;;;;;;;;;;12985859;19;19918;-65
2023/06/23 06:57:48;;;;;;;;;;;;;;;;;;12984003;19;19918;-65
2023/06/23 07:02:06;;;;;;;;;;;;;;;;;;12982702;19;19922;-65
2023/06/23 07:06:25;;;;;;;;;;;;;;;;;;12984178;19;19925;-65
2023/06/23 07:10:42;;;;;;;;;;;;;;;;;;12983362;19;20388;-66
2023/06/23 07:15:01;;;;;;;;;;;;;;;;;;12982906;19;19922;-65
2023/06/23 07:19:20;;;;;;;;;;;;;;;;;;12982871;19;19915;-66
2023/06/23 07:23:38;;;;;;;;;;;;;;;;;;12982381;19;19943;-65
2023/06/23 07:27:56;;;;;;;;;;;;;;;;;;12981588;19;20026;-65
2023/06/23 07:32:15;;;;;;;;;;;;;;;;;;12981416;19;20271;-66
2023/06/23 07:36:33;;;;;;;;;;;;;;;;;;12982252;19;19915;-66
2023/06/23 07:40:50;;;;;;;;;;;;;;;;;;12982692;19;19918;-66
2023/06/23 07:45:08;;;;;;;;;;;;;;;;;;12982392;19;20677;-66
2023/06/23 07:49:26;;;;;;;;;;;;;;;;;;12990598;19;19918;-66
2023/06/23 07:53:44;;;;;;;;;;;;;;;;;;12994771;19;19952;-66
2023/06/23 07:58:18;;;;;;;;;;;;;;;;;;12994840;19;19934;-67
2023/06/23 08:02:35;;;;;;;;;;;;;;;;;;12994269;19;19919;-67
2023/06/23 08:06:54;;;;;;;;;;;;;;;;;;12993667;19;19923;-67
2023/06/23 08:11:12;;;;;;;;;;;;;;;;;;12992302;19;19922;-67
2023/06/23 08:15:31;;;;;;;;;;;;;;;;;;12993447;19;19943;-67
2023/06/23 08:19:50;;;;;;;;;;;;;;;;;;12993773;19;19922;-68
2023/06/23 08:24:08;;;;;;;;;;;;;;;;;;12993205;19;19915;-68
2023/06/23 08:28:28;;;;;;;;;;;;;;;;;;12991545;19;19919;-67
2023/06/23 08:32:45;;;;;;;;;;;;;;;;;;12991600;19;19923;-68
2023/06/23 08:37:04;;;;;;;;;;;;;;;;;;12990870;19;20275;-68
2023/06/23 08:41:22;;;;;;;;;;;;;;;;;;12992557;19;19922;-67
2023/06/23 08:45:43;;;;;;;;;;;;;;;;;;12991546;19;19943;-67
2023/06/23 08:50:00;;;;;;;;;;;;;;;;;;12991465;19;19922;-67
2023/06/23 08:54:19;;;;;;;;;;;;;;;;;;12991334;19;19926;-67
2023/06/23 08:58:36;;;;;;;;;;;;;;;;;;12991001;19;20366;-67
2023/06/23 09:02:55;;;;;;;;;;;;;;;;;;12990718;19;19918;-68
2023/06/23 09:07:13;;;;;;;;;;;;;;;;;;12988100;19;19933;-67
2023/06/23 09:11:30;;;;;;;;;;;;;;;;;;12990121;19;20364;-67
2023/06/23 09:15:50;;;;;;;;;;;;;;;;;;12989287;19;19924;-68
2023/06/23 09:20:18;;;;;;;;;;;;;;;;;;12990354;19;19919;-67
2023/06/23 09:24:41;;;;;;;;;;;;;;;;;;12989622;19;19948;-67
2023/06/23 09:29:18;;;;;;;;;;;;;;;;;;12986933;19;19923;-67
2023/06/23 09:33:44;;;;;;;;;;;;;;;;;;12988242;19;19922;-67
2023/06/23 09:38:03;;;;;;;;;;;;;;;;;;12987785;19;19921;-66
2023/06/23 09:42:21;;;;;;;;;;;;;;;;;;12988944;19;19942;-66
2023/06/23 09:46:41;;;;;;;;;;;;;;;;;;12987048;19;19926;-66
2023/06/23 09:51:01;;;;;;;;;;;;;;;;;;12988918;19;19911;-66
2023/06/23 09:55:20;;;;;;;;;;;;;;;;;;12988031;19;19918;-66
2023/06/23 09:59:40;;;;;;;;;;;;;;;;;;12987935;19;19919;-68
2023/06/23 10:03:59;;;;;;;;;;;;;;;;;;12986290;19;19915;-68
2023/06/23 10:08:16;;;;;;;;;;;;;;;;;;12986558;19;19923;-67
2023/06/23 10:12:38;;;;;;;;;;;;;;;;;;12985212;19;19923;-67
2023/06/23 10:16:57;;;;;;;;;;;;;;;;;;12987193;19;19927;-67
2023/06/23 10:21:17;;;;;;;;;;;;;;;;;;12983085;19;20255;-67
2023/06/23 10:25:36;;;;;;;;;;;;;;;;;;12984174;19;19927;-66
2023/06/23 10:29:57;;;;;;;;;;;;;;;;;;12983324;19;19918;-66
2023/06/23 10:34:16;;;;;;;;;;;;;;;;;;12986430;19;19919;-67
2023/06/23 10:38:34;;;;;;;;;;;;;;;;;;12983829;19;19918;-67
2023/06/23 10:42:56;;;;;;;;;;;;;;;;;;12984065;19;19918;-67
2023/06/23 10:47:14;;;;;;;;;;;;;;;;;;12983281;19;19915;-68
2023/06/23 10:51:32;;;;;;;;;;;;;;;;;;12982600;19;19922;-66
2023/06/23 10:55:55;;;;;;;;;;;;;;;;;;12982455;19;19918;-65
2023/06/23 11:00:30;;;;;;;;;;;;;;;;;;12982845;19;19922;-65
2023/06/23 11:05:02;;;;;;;;;;;;;;;;;;12981939;19;19930;-65
2023/06/23 11:09:38;;;;;;;;;;;;;;;;;;12980108;19;20255;-65
2023/06/23 11:13:57;;;;;;;;;;;;;;;;;;12983244;19;19925;-65
2023/06/23 11:18:19;;;;;;;;;;;;;;;;;;12982767;19;19922;-65
2023/06/23 11:23:03;;;;;;;;;;;;;;;;;;12985815;19;19922;-64
2023/06/23 11:27:21;;;;;;;;;;;;;;;;;;12995128;19;19934;-65
2023/06/23 11:32:01;;;;;;;;;;;;;;;;;;12993673;19;19922;-65
2023/06/23 11:36:20;;;;;;;;;;;;;;;;;;12994740;19;19915;-66
2023/06/23 11:40:38;;;;;;;;;;;;;;;;;;12993054;19;19922;-65
2023/06/23 11:44:56;;;;;;;;;;;;;;;;;;12992703;19;20299;-65
2023/06/23 11:49:14;;;;;;;;;;;;;;;;;;12991624;19;19922;-65
2023/06/23 11:53:31;;;;;;;;;;;;;;;;;;12992097;19;19915;-65
2023/06/23 11:57:49;;;;;;;;;;;;;;;;;;12993297;19;19922;-64
2023/06/23 12:02:08;;;;;;;;;;;;;;;;;;12992459;19;19930;-64
2023/06/23 12:06:27;;;;;;;;;;;;;;;;;;12993235;19;20326;-65
2023/06/23 12:10:46;;;;;;;;;;;;;;;;;;12991876;19;19931;-65
2023/06/23 12:15:04;;;;;;;;;;;;;;;;;;12991329;19;20298;-65
2023/06/23 12:19:23;;;;;;;;;;;;;;;;;;12992126;19;19919;-65
2023/06/23 12:23:41;;;;;;;;;;;;;;;;;;12991771;19;20296;-66
2023/06/23 12:28:03;;;;;;;;;;;;;;;;;;12989571;19;20453;-65
2023/06/23 12:32:31;;;;;;;;;;;;;;;;;;12989897;19;19947;-66
2023/06/23 12:36:48;;;;;;;;;;;;;;;;;;12992116;19;20345;-65
2023/06/23 12:41:20;;;;;;;;;;;;;;;;;;12989408;19;20254;-66
2023/06/23 12:45:37;;;;;;;;;;;;;;;;;;12992111;19;19915;-65
2023/06/23 12:50:04;;;;;;;;;;;;;;;;;;12990401;19;19933;-65
2023/06/23 12:54:22;;;;;;;;;;;;;;;;;;12989047;19;19929;-65
2023/06/23 12:58:41;;;;;;;;;;;;;;;;;;12990482;19;19923;-65
2023/06/23 13:03:00;;;;;;;;;;;;;;;;;;12990032;19;19939;-66
2023/06/23 13:07:20;;;;;;;;;;;;;;;;;;12989358;19;19914;-65
2023/06/23 13:11:38;;;;;;;;;;;;;;;;;;12988508;19;19914;-65
2023/06/23 13:15:55;;;;;;;;;;;;;;;;;;12989697;19;19915;-65
2023/06/23 13:20:13;;;;;;;;;;;;;;;;;;12986972;19;19990;-65
2023/06/23 13:24:31;;;;;;;;;;;;;;;;;;12989660;19;19919;-65
2023/06/23 13:28:50;;;;;;;;;;;;;;;;;;12988036;19;19918;-66
2023/06/23 13:33:07;;;;;;;;;;;;;;;;;;12989255;19;20007;-65
2023/06/23 13:37:25;;;;;;;;;;;;;;;;;;12988576;19;19956;-65
2023/06/23 13:41:44;;;;;;;;;;;;;;;;;;12987231;19;19915;-65
2023/06/23 13:46:02;;;;;;;;;;;;;;;;;;12984521;19;19919;-66
2023/06/23 13:50:21;;;;;;;;;;;;;;;;;;12987163;19;19915;-65
2023/06/23 13:54:39;;;;;;;;;;;;;;;;;;12986770;19;19939;-66
2023/06/23 13:58:59;;;;;;;;;;;;;;;;;;12986877;19;19924;-65
2023/06/23 14:03:18;;;;;;;;;;;;;;;;;;12985347;19;20246;-66
2023/06/23 14:07:36;;;;;;;;;;;;;;;;;;12986117;19;19919;-66
2023/06/23 14:11:54;;;;;;;;;;;;;;;;;;12986363;19;20250;-66
2023/06/23 14:16:15;;;;;;;;;;;;;;;;;;12986732;19;20266;-66
2023/06/23 14:20:34;;;;;;;;;;;;;;;;;;12986980;19;19915;-67
2023/06/23 14:24:52;;;;;;;;;;;;;;;;;;12985727;19;20294;-66
2023/06/23 14:29:10;;;;;;;;;;;;;;;;;;12984617;19;19926;-66
2023/06/23 14:33:27;;;;;;;;;;;;;;;;;;12985037;19;19915;-66
2023/06/23 14:37:45;;;;;;;;;;;;;;;;;;12984994;19;20378;-67
2023/06/23 14:42:06;;;;;;;;;;;;;;;;;;12984460;19;19933;-66
2023/06/23 14:46:25;;;;;;;;;;;;;;;;;;12982431;19;19960;-66
2023/06/23 14:50:44;;;;;;;;;;;;;;;;;;12983734;19;19922;-66
2023/06/23 14:55:02;;;;;;;;;;;;;;;;;;12982770;19;20373;-66
2023/06/23 14:59:20;;;;;;;;;;;;;;;;;;12984012;19;19915;-67
2023/06/23 15:03:39;;;;;;;;;;;;;;;;;;12984194;19;19925;-67
2023/06/23 15:07:58;;;;;;;;;;;;;;;;;;12982405;19;20335;-66
2023/06/23 15:12:16;;;;;;;;;;;;;;;;;;12982206;19;19925;-67
2023/06/23 15:16:35;;;;;;;;;;;;;;;;;;12983073;19;19934;-66
2023/06/23 15:20:53;;;;;;;;;;;;;;;;;;12982250;19;19922;-66
2023/06/23 15:25:11;;;;;;;;;;;;;;;;;;12981486;19;19953;-66
2023/06/23 15:29:30;;;;;;;;;;;;;;;;;;12981465;19;19923;-66
2023/06/23 15:33:48;;;;;;;;;;;;;;;;;;12982541;19;19910;-66
2023/06/23 15:38:06;;;;;;;;;;;;;;;;;;12981542;19;19919;-66
2023/06/23 15:42:24;;;;;;;;;;;;;;;;;;12981806;19;20331;-66
2023/06/23 15:46:43;;;;;;;;;;;;;;;;;;12980740;19;19930;-66
2023/06/23 15:51:05;;;;;;;;;;;;;;;;;;12979368;19;19915;-66
2023/06/23 15:55:23;;;;;;;;;;;;;;;;;;12980946;19;20007;-66
2023/06/23 15:59:43;;;;;;;;;;;;;;;;;;12979780;19;19931;-66
2023/06/23 16:04:01;;;;;;;;;;;;;;;;;;12980456;19;19922;-66
2023/06/23 16:08:19;;;;;;;;;;;;;;;;;;12981541;19;20263;-66
2023/06/23 16:12:37;;;;;;;;;;;;;;;;;;12991020;19;19918;-66
2023/06/23 16:16:55;;;;;;;;;;;;;;;;;;12991892;19;19915;-65
2023/06/23 16:21:13;;;;;;;;;;;;;;;;;;12991618;19;19915;-66
2023/06/23 16:25:31;;;;;;;;;;;;;;;;;;12991662;19;19918;-66
2023/06/23 16:29:50;;;;;;;;;;;;;;;;;;12991175;19;19918;-66
2023/06/23 16:34:08;;;;;;;;;;;;;;;;;;12990118;19;19926;-66
2023/06/23 16:38:26;;;;;;;;;;;;;;;;;;12990118;19;19919;-66
2023/06/23 16:42:47;;;;;;;;;;;;;;;;;;12990166;19;20034;-66
2023/06/23 16:47:06;;;;;;;;;;;;;;;;;;12990061;19;19911;-66
2023/06/23 16:51:25;;;;;;;;;;;;;;;;;;12989606;19;19926;-66
2023/06/23 16:56:04;;;;;;;;;;;;;;;;;;12989617;19;19919;-66
2023/06/23 17:00:22;;;;;;;;;;;;;;;;;;12988794;19;20207;-66
2023/06/23 17:04:40;;;;;;;;;;;;;;;;;;12988820;19;19926;-65
2023/06/23 17:08:59;;;;;;;;;;;;;;;;;;12988900;19;20334;-65
2023/06/23 17:13:16;;;;;;;;;;;;;;;;;;12988216;19;20269;-66
2023/06/23 17:17:35;;;;;;;;;;;;;;;;;;12989461;19;19922;-66
2023/06/23 17:21:54;;;;;;;;;;;;;;;;;;12983949;19;19919;-66
2023/06/23 17:26:11;;;;;;;;;;;;;;;;;;12989408;19;19923;-65
2023/06/23 17:30:30;;;;;;;;;;;;;;;;;;12987336;19;20342;-66
2023/06/23 17:34:49;;;;;;;;;;;;;;;;;;12987568;19;19918;-66
2023/06/23 17:39:07;;;;;;;;;;;;;;;;;;12987408;19;19938;-67
2023/06/23 17:43:24;;;;;;;;;;;;;;;;;;12988051;19;19953;-66
2023/06/23 17:47:43;;;;;;;;;;;;;;;;;;12987372;19;19937;-65
2023/06/23 17:52:00;;;;;;;;;;;;;;;;;;12985263;19;19919;-66
2023/06/23 17:56:19;;;;;;;;;;;;;;;;;;12985293;19;19926;-66
2023/06/23 18:00:36;;;;;;;;;;;;;;;;;;12986881;19;19920;-66
2023/06/23 18:04:55;;;;;;;;;;;;;;;;;;12986385;19;19922;-66
2023/06/23 18:09:13;;;;;;;;;;;;;;;;;;12987958;19;19929;-66
2023/06/23 18:13:31;;;;;;;;;;;;;;;;;;12986183;19;20310;-67
2023/06/23 18:17:50;;;;;;;;;;;;;;;;;;12985906;19;20369;-66
2023/06/23 18:22:07;;;;;;;;;;;;;;;;;;12984085;19;20297;-66
2023/06/23 18:26:25;;;;;;;;;;;;;;;;;;12985615;19;20278;-65
2023/06/23 18:30:43;;;;;;;;;;;;;;;;;;12983764;19;19942;-66
2023/06/23 18:35:05;;;;;;;;;;;;;;;;;;12982678;19;20333;-65
2023/06/23 18:39:23;;;;;;;;;;;;;;;;;;12984224;19;20290;-65
2023/06/23 18:43:41;;;;;;;;;;;;;;;;;;12983780;19;19926;-66
2023/06/23 18:48:00;;;;;;;;;;;;;;;;;;12983807;19;19926;-66
2023/06/23 18:52:20;;;;;;;;;;;;;;;;;;12983386;19;19935;-65
2023/06/23 18:56:37;;;;;;;;;;;;;;;;;;12983873;19;19925;-65
2023/06/23 19:00:55;;;;;;;;;;;;;;;;;;12984033;19;20338;-65
2023/06/23 19:05:13;;;;;;;;;;;;;;;;;;12983754;19;20334;-66
2023/06/23 19:09:32;;;;;;;;;;;;;;;;;;12984537;19;19923;-65
2023/06/23 19:13:49;;;;;;;;;;;;;;;;;;12983065;19;19922;-66
2023/06/23 19:18:07;;;;;;;;;;;;;;;;;;12981644;19;19919;-65
2023/06/23 19:22:25;;;;;;;;;;;;;;;;;;12982563;19;19918;-65
2023/06/23 19:26:43;;;;;;;;;;;;;;;;;;12981342;19;20283;-65
2023/06/23 19:31:01;;;;;;;;;;;;;;;;;;12980443;19;19918;-66
2023/06/23 19:35:20;;;;;;;;;;;;;;;;;;12981892;19;20341;-66
2023/06/23 19:39:38;;;;;;;;;;;;;;;;;;12981676;19;19927;-64
2023/06/23 19:44:17;;;;;;;;;;;;;;;;;;12987933;19;19943;-65
2023/06/23 19:48:35;;;;;;;;;;;;;;;;;;12993811;19;19918;-66
2023/06/23 19:52:53;;;;;;;;;;;;;;;;;;12991306;19;20263;-66
2023/06/23 19:57:11;;;;;;;;;;;;;;;;;;12993216;19;20014;-65
2023/06/23 20:01:29;;;;;;;;;;;;;;;;;;12993922;19;19923;-66
2023/06/23 20:05:48;;;;;;;;;;;;;;;;;;12993694;19;19926;-68
2023/06/23 20:10:07;;;;;;;;;;;;;;;;;;12992586;19;20353;-66
2023/06/23 20:14:24;;;;;;;;;;;;;;;;;;12991452;19;19944;-66
2023/06/23 20:18:42;;;;;;;;;;;;;;;;;;12992874;19;19926;-66
2023/06/23 20:23:02;;;;;;;;;;;;;;;;;;12993251;19;20323;-66
2023/06/23 20:27:19;;;;;;;;;;;;;;;;;;12990977;19;19926;-66
2023/06/23 20:31:37;;;;;;;;;;;;;;;;;;12988381;19;19986;-66
2023/06/23 20:35:58;;;;;;;;;;;;;;;;;;12991932;19;19937;-66
2023/06/23 20:40:18;;;;;;;;;;;;;;;;;;12991260;19;19922;-66
2023/06/23 20:44:36;;;;;;;;;;;;;;;;;;12991918;19;19926;-65
2023/06/23 20:48:55;;;;;;;;;;;;;;;;;;12991878;19;20231;-65
2023/06/23 20:53:12;;;;;;;;;;;;;;;;;;12988737;19;19935;-65
2023/06/23 20:57:31;;;;;;;;;;;;;;;;;;12990923;19;19915;-65
2023/06/23 21:01:50;;;;;;;;;;;;;;;;;;12990668;19;20279;-65
2023/06/23 21:06:07;;;;;;;;;;;;;;;;;;12989313;19;20338;-65
2023/06/23 21:10:25;;;;;;;;;;;;;;;;;;12989117;19;19918;-66
2023/06/23 21:14:45;;;;;;;;;;;;;;;;;;12988184;19;19926;-66
2023/06/23 21:19:20;;;;;;;;;;;;;;;;;;12988812;19;20365;-65
2023/06/23 21:23:38;;;;;;;;;;;;;;;;;;12988810;19;19930;-66
2023/06/23 21:27:56;;;;;;;;;;;;;;;;;;12988405;19;20201;-65
2023/06/23 21:32:14;;;;;;;;;;;;;;;;;;12986946;19;19926;-65
2023/06/23 21:36:32;;;;;;;;;;;;;;;;;;12987736;19;20383;-65
2023/06/23 21:40:50;;;;;;;;;;;;;;;;;;12989397;19;19915;-65
2023/06/23 21:45:08;;;;;;;;;;;;;;;;;;12987589;19;19923;-66
2023/06/23 21:49:26;;;;;;;;;;;;;;;;;;12987275;19;20272;-66
2023/06/23 21:53:43;;;;;;;;;;;;;;;;;;12984414;19;20276;-67
2023/06/23 21:58:03;;;;;;;;;;;;;;;;;;12985833;19;19922;-65
2023/06/23 22:02:21;;;;;;;;;;;;;;;;;;12987251;19;19938;-66
2023/06/23 22:06:38;;;;;;;;;;;;;;;;;;12985366;19;19918;-66
2023/06/23 22:10:57;;;;;;;;;;;;;;;;;;12986804;19;19919;-66
2023/06/23 22:15:14;;;;;;;;;;;;;;;;;;12982906;19;19942;-65
2023/06/23 22:19:32;;;;;;;;;;;;;;;;;;12984802;19;19934;-66
2023/06/23 22:23:50;;;;;;;;;;;;;;;;;;12974184;19;19919;-66
2023/06/23 22:28:09;;;;;;;;;;;;;;;;;;12979632;19;20343;-66
2023/06/23 22:32:27;;;;;;;;;;;;;;;;;;12984816;19;19939;-65
2023/06/23 22:36:45;;;;;;;;;;;;;;;;;;12984753;19;19922;-66
2023/06/23 22:41:04;;;;;;;;;;;;;;;;;;12984320;19;19918;-66
2023/06/23 22:45:21;;;;;;;;;;;;;;;;;;12984717;19;19964;-66
2023/06/23 22:49:39;;;;;;;;;;;;;;;;;;12984610;19;19919;-65
2023/06/23 22:53:57;;;;;;;;;;;;;;;;;;12983752;19;19918;-66
2023/06/23 22:58:15;;;;;;;;;;;;;;;;;;12982599;19;19946;-66
2023/06/23 23:02:32;;;;;;;;;;;;;;;;;;12984606;19;19922;-66
2023/06/23 23:06:50;;;;;;;;;;;;;;;;;;12984267;19;20029;-67
2023/06/23 23:11:08;;;;;;;;;;;;;;;;;;12981995;19;19918;-66
2023/06/23 23:15:26;;;;;;;;;;;;;;;;;;12982696;19;19923;-66
2023/06/23 23:19:45;;;;;;;;;;;;;;;;;;12983014;19;19918;-66
2023/06/23 23:24:04;;;;;;;;;;;;;;;;;;12981891;19;20011;-68
2023/06/23 23:28:22;;;;;;;;;;;;;;;;;;12982126;19;19966;-67
2023/06/23 23:32:41;;;;;;;;;;;;;;;;;;12981826;19;20618;-66
2023/06/23 23:37:06;;;;;;;;;;;;;;;;;;12982152;19;19951;-66
2023/06/23 23:41:24;;;;;;;;;;;;;;;;;;12980927;19;19919;-66
2023/06/23 23:45:42;;;;;;;;;;;;;;;;;;12981435;19;19914;-66
2023/06/23 23:50:01;;;;;;;;;;;;;;;;;;12982182;19;19933;-66
2023/06/23 23:54:19;;;;;;;;;;;;;;;;;;12982110;19;20480;-66
2023/06/23 23:58:37;;;;;;;;;;;;;;;;;;12982455;19;20338;-66
